createdAt,value
2022-11-19T00:02:07.894Z,26.10
2022-11-19T00:04:36.345Z,26.23
2022-11-19T00:07:04.599Z,26.23
2022-11-19T00:09:34.407Z,26.09
2022-11-19T00:12:20.211Z,26.24
2022-11-19T00:14:48.626Z,26.19
2022-11-19T00:17:16.705Z,26.08
2022-11-19T00:19:45.269Z,26.10
2022-11-19T00:22:13.458Z,26.17
2022-11-19T00:24:43.112Z,26.29
2022-11-19T00:27:11.290Z,26.28
2022-11-19T00:29:39.737Z,26.22
2022-11-19T00:32:07.961Z,26.27
2022-11-19T00:34:36.378Z,26.33
2022-11-19T00:37:04.469Z,26.33
2022-11-19T00:39:33.223Z,26.56
2022-11-19T00:42:02.585Z,26.41
2022-11-19T00:44:36.748Z,26.64
2022-11-19T00:47:05.660Z,26.72
2022-11-19T00:49:34.168Z,26.95
2022-11-19T00:52:02.398Z,26.83
2022-11-19T00:54:30.760Z,27.11
2022-11-19T00:56:58.843Z,27.03
2022-11-19T00:59:28.713Z,27.04
2022-11-19T01:01:56.822Z,27.13
2022-11-19T01:04:25.363Z,27.34
2022-11-19T01:06:53.430Z,27.22
2022-11-19T01:09:22.086Z,27.29
2022-11-19T01:11:50.428Z,27.31
2022-11-19T01:14:18.787Z,27.28
2022-11-19T01:16:48.199Z,27.04
2022-11-19T01:19:17.324Z,27.40
2022-11-19T01:21:45.572Z,27.19
2022-11-19T01:24:14.027Z,27.32
2022-11-19T01:26:45.882Z,27.19
2022-11-19T01:29:14.715Z,27.17
2022-11-19T01:31:42.775Z,27.29
2022-11-19T01:34:12.598Z,27.33
2022-11-19T01:36:40.727Z,27.40
2022-11-19T01:39:09.263Z,27.50
2022-11-19T01:41:37.373Z,27.58
2022-11-19T01:44:07.324Z,27.40
2022-11-19T01:46:37.347Z,27.42
2022-11-19T01:49:08.295Z,27.64
2022-11-19T01:51:39.677Z,27.82
2022-11-19T01:54:12.363Z,27.75
2022-11-19T01:56:40.762Z,27.76
2022-11-19T01:59:12.055Z,28.01
2022-11-19T02:01:40.272Z,27.98
2022-11-19T02:04:09.191Z,27.95
2022-11-19T02:06:39.271Z,27.79
2022-11-19T02:09:08.056Z,28.17
2022-11-19T02:11:53.280Z,27.43
2022-11-19T02:14:54.839Z,27.17
2022-11-19T02:17:36.259Z,27.01
2022-11-19T02:20:37.252Z,26.76
2022-11-19T02:23:45.790Z,26.83
2022-11-19T02:26:48.361Z,26.87
2022-11-19T02:29:24.590Z,27.46
2022-11-19T02:31:58.784Z,27.56
2022-11-19T02:34:30.671Z,28.01
2022-11-19T02:37:02.137Z,28.07
2022-11-19T02:39:31.355Z,27.28
2022-11-19T02:42:05.903Z,27.90
2022-11-19T02:44:54.481Z,28.09
2022-11-19T02:47:28.758Z,28.18
2022-11-19T02:50:00.290Z,28.54
2022-11-19T02:52:28.912Z,28.60
2022-11-19T02:54:57.066Z,28.55
2022-11-19T02:57:25.460Z,28.54
2022-11-19T03:00:15.214Z,28.30
2022-11-19T03:03:05.314Z,28.10
2022-11-19T03:05:37.312Z,28.19
2022-11-19T03:08:07.218Z,28.48
2022-11-19T03:10:41.099Z,28.20
2022-11-19T03:13:27.407Z,28.53
2022-11-19T03:16:15.449Z,28.54
2022-11-19T03:18:52.364Z,28.27
2022-11-19T03:21:23.103Z,28.48
2022-11-19T03:23:55.981Z,28.25
2022-11-19T03:26:27.329Z,28.53
2022-11-19T03:28:58.053Z,28.42
2022-11-19T03:31:27.545Z,28.51
2022-11-19T03:34:01.963Z,28.40
2022-11-19T03:36:33.433Z,28.21
2022-11-19T03:39:06.019Z,28.41
2022-11-19T03:41:36.438Z,28.42
2022-11-19T03:44:16.899Z,28.17
2022-11-19T03:46:47.986Z,28.47
2022-11-19T03:49:21.026Z,28.53
2022-11-19T03:51:52.214Z,28.60
2022-11-19T03:54:21.136Z,28.90
2022-11-19T03:56:51.509Z,28.73
2022-11-19T03:59:22.515Z,28.95
2022-11-19T04:01:54.879Z,28.86
2022-11-19T04:04:39.685Z,28.90
2022-11-19T04:07:11.028Z,29.02
2022-11-19T04:09:40.947Z,29.18
2022-11-19T04:12:14.403Z,28.96
2022-11-19T04:14:43.605Z,28.99
2022-11-19T04:17:12.086Z,28.90
2022-11-19T04:19:42.499Z,28.96
2022-11-19T04:22:13.475Z,28.96
2022-11-19T04:24:42.528Z,29.19
2022-11-19T04:27:11.117Z,28.97
2022-11-19T04:29:39.945Z,29.07
2022-11-19T04:32:08.186Z,29.24
2022-11-19T04:34:36.583Z,29.21
2022-11-19T04:37:06.186Z,29.30
2022-11-19T04:39:35.096Z,29.16
2022-11-19T04:42:03.305Z,29.36
2022-11-19T04:44:33.042Z,29.22
2022-11-19T04:47:01.284Z,29.22
2022-11-19T04:49:29.830Z,29.22
2022-11-19T04:51:58.325Z,29.15
2022-11-19T04:54:28.007Z,29.09
2022-11-19T04:56:56.042Z,29.05
2022-11-19T04:59:24.485Z,29.22
2022-11-19T05:01:52.745Z,29.23
2022-11-19T05:04:21.652Z,29.23
2022-11-19T05:06:49.650Z,29.33
2022-11-19T05:09:18.384Z,29.31
2022-11-19T05:11:48.136Z,29.03
2022-11-19T05:14:16.643Z,29.27
2022-11-19T05:16:44.736Z,29.21
2022-11-19T05:19:13.389Z,29.29
2022-11-19T05:21:41.536Z,29.25
2022-11-19T05:24:10.339Z,29.09
2022-11-19T05:26:38.318Z,29.02
2022-11-19T05:29:08.291Z,29.06
2022-11-19T05:31:36.436Z,29.14
2022-11-19T05:34:04.973Z,28.91
2022-11-19T05:36:33.056Z,28.73
2022-11-19T05:39:01.564Z,29.00
2022-11-19T05:41:29.661Z,28.77
2022-11-19T05:43:58.146Z,28.70
2022-11-19T05:46:27.639Z,28.71
2022-11-19T05:48:56.217Z,28.86
2022-11-19T05:51:24.431Z,28.66
2022-11-19T05:53:53.017Z,28.56
2022-11-19T05:56:21.199Z,28.85
2022-11-19T05:58:49.745Z,28.58
2022-11-19T06:01:17.860Z,28.79
2022-11-19T06:03:47.672Z,28.66
2022-11-19T06:06:15.682Z,28.90
2022-11-19T06:08:44.111Z,28.61
2022-11-19T06:11:33.075Z,28.55
2022-11-19T06:14:01.477Z,28.74
2022-11-19T06:16:29.866Z,28.76
2022-11-19T06:18:59.647Z,28.97
2022-11-19T06:21:27.772Z,29.32
2022-11-19T06:23:56.139Z,29.39
2022-11-19T06:26:25.259Z,29.59
2022-11-19T06:28:53.661Z,29.87
2022-11-19T06:31:22.239Z,29.96
2022-11-19T06:33:53.416Z,30.30
2022-11-19T06:36:26.149Z,30.25
2022-11-19T06:38:55.881Z,30.33
2022-11-19T06:41:24.011Z,30.40
2022-11-19T06:43:52.542Z,30.54
2022-11-19T06:46:20.750Z,30.58
2022-11-19T06:48:49.106Z,30.76
2022-11-19T06:51:17.115Z,30.85
2022-11-19T06:53:46.903Z,30.82
2022-11-19T06:56:14.987Z,31.14
2022-11-19T06:58:43.439Z,31.20
2022-11-19T07:01:11.505Z,31.29
2022-11-19T07:03:39.842Z,31.08
2022-11-19T07:06:08.543Z,31.38
2022-11-19T07:08:37.851Z,31.28
2022-11-19T07:11:21.510Z,31.13
2022-11-19T07:13:59.188Z,31.21
2022-11-19T07:16:32.215Z,30.89
2022-11-19T07:19:01.594Z,31.28
2022-11-19T07:21:30.946Z,31.15
2022-11-19T07:24:00.584Z,31.10
2022-11-19T07:26:31.842Z,30.74
2022-11-19T07:29:04.619Z,31.06
2022-11-19T07:31:33.606Z,30.85
2022-11-19T07:34:02.429Z,30.96
2022-11-19T07:36:30.431Z,30.98
2022-11-19T07:38:58.820Z,31.15
2022-11-19T07:41:44.344Z,31.15
2022-11-19T07:44:14.181Z,30.56
2022-11-19T07:46:42.732Z,30.23
2022-11-19T07:49:11.183Z,29.66
2022-11-19T07:51:39.464Z,29.62
2022-11-19T07:54:09.383Z,29.29
2022-11-19T07:56:37.685Z,29.09
2022-11-19T07:59:06.086Z,28.51
2022-11-19T08:01:35.752Z,27.87
2022-11-19T08:04:05.438Z,27.74
2022-11-19T08:06:34.766Z,28.04
2022-11-19T08:09:05.696Z,27.78
2022-11-19T08:11:34.129Z,27.67
2022-11-19T08:14:02.886Z,27.65
2022-11-19T08:16:51.041Z,27.43
2022-11-19T08:19:20.970Z,26.72
2022-11-19T08:21:49.408Z,26.88
2022-11-19T08:24:20.749Z,26.44
2022-11-19T08:26:50.133Z,26.41
2022-11-19T08:29:20.601Z,25.84
2022-11-19T08:31:49.600Z,26.10
2022-11-19T08:34:18.310Z,26.11
2022-11-19T08:36:48.015Z,26.34
2022-11-19T08:39:16.470Z,26.45
2022-11-19T08:42:02.036Z,26.23
2022-11-19T08:44:30.541Z,26.11
2022-11-19T08:46:58.661Z,26.19
2022-11-19T08:49:27.119Z,26.22
2022-11-19T08:51:57.644Z,25.83
2022-11-19T08:54:26.062Z,25.84
2022-11-19T08:56:54.471Z,25.46
2022-11-19T08:59:23.065Z,25.20
2022-11-19T09:01:51.271Z,24.79
2022-11-19T09:04:19.951Z,24.69
2022-11-19T09:06:48.329Z,24.63
2022-11-19T09:09:18.172Z,24.34
2022-11-19T09:11:46.275Z,23.98
2022-11-19T09:14:14.652Z,23.66
2022-11-19T09:16:42.800Z,23.12
2022-11-19T09:19:11.209Z,22.77
2022-11-19T09:21:39.370Z,22.91
2022-11-19T09:24:07.967Z,22.63
2022-11-19T09:26:37.574Z,21.79
2022-11-19T09:29:06.027Z,21.84
2022-11-19T09:31:34.094Z,21.37
2022-11-19T09:34:02.566Z,20.97
2022-11-19T09:36:30.695Z,20.83
2022-11-19T09:38:59.531Z,20.25
2022-11-19T09:41:45.515Z,19.49
2022-11-19T09:44:23.779Z,19.64
2022-11-19T09:46:57.942Z,19.35
2022-11-19T09:49:29.897Z,19.22
2022-11-19T09:52:02.317Z,18.24
2022-11-19T09:54:30.883Z,18.02
2022-11-19T09:57:04.589Z,18.24
2022-11-19T09:59:35.229Z,18.92
2022-11-19T10:02:08.296Z,19.12
2022-11-19T10:04:38.661Z,18.76
2022-11-19T10:07:12.721Z,18.71
2022-11-19T10:09:52.180Z,18.63
2022-11-19T10:12:31.700Z,18.27
2022-11-19T10:15:13.072Z,17.95
2022-11-19T10:17:49.166Z,18.25
2022-11-19T10:20:29.291Z,18.42
2022-11-19T10:23:00.492Z,19.33
2022-11-19T10:25:29.421Z,18.63
2022-11-19T10:28:05.206Z,19.28
2022-11-19T10:30:33.568Z,20.09
2022-11-19T10:33:04.804Z,20.35
2022-11-19T10:35:33.935Z,19.83
2022-11-19T10:38:03.680Z,20.41
2022-11-19T10:40:40.994Z,20.24
2022-11-19T10:43:22.115Z,20.59
2022-11-19T10:45:51.579Z,20.82
2022-11-19T10:48:23.392Z,20.75
2022-11-19T10:50:52.336Z,21.12
2022-11-19T10:53:25.038Z,21.18
2022-11-19T10:55:56.310Z,21.12
2022-11-19T10:58:27.356Z,21.13
2022-11-19T11:00:56.049Z,20.66
2022-11-19T11:03:26.861Z,21.61
2022-11-19T11:05:58.416Z,21.57
2022-11-19T11:08:27.167Z,21.12
2022-11-19T11:10:56.376Z,21.17
2022-11-19T11:13:57.457Z,20.53
2022-11-19T11:16:27.730Z,20.82
2022-11-19T11:18:58.121Z,20.82
2022-11-19T11:21:36.029Z,19.99
2022-11-19T11:24:06.399Z,20.25
2022-11-19T11:26:36.441Z,19.72
2022-11-19T11:29:08.796Z,19.46
2022-11-19T11:31:39.660Z,19.77
2022-11-19T11:34:10.912Z,20.02
2022-11-19T11:36:39.669Z,19.74
2022-11-19T11:39:07.929Z,18.87
2022-11-19T11:44:31.599Z,18.65
2022-11-19T11:47:03.568Z,18.65
2022-11-19T11:49:33.590Z,18.29
2022-11-19T11:52:20.482Z,17.38
2022-11-19T11:55:00.227Z,17.80
2022-11-19T11:57:30.222Z,18.13
2022-11-19T11:59:59.927Z,18.54
2022-11-19T12:02:31.413Z,19.03
2022-11-19T12:05:02.278Z,19.49
2022-11-19T12:07:47.724Z,19.51
2022-11-19T12:10:25.518Z,19.86
2022-11-19T12:13:19.186Z,19.65
2022-11-19T12:15:56.116Z,19.35
2022-11-19T12:18:32.093Z,19.40
2022-11-19T12:21:04.346Z,19.26
2022-11-19T12:23:48.834Z,18.87
2022-11-19T12:26:22.695Z,19.40
2022-11-19T12:29:02.761Z,19.67
2022-11-19T12:31:44.486Z,19.33
2022-11-19T12:34:28.821Z,19.39
2022-11-19T12:37:02.556Z,19.58
2022-11-19T12:39:40.052Z,19.62
2022-11-19T12:42:21.852Z,19.57
2022-11-19T12:44:57.038Z,19.42
2022-11-19T12:47:43.529Z,19.79
2022-11-19T12:50:19.842Z,20.02
2022-11-19T12:53:14.043Z,19.53
2022-11-19T12:55:49.591Z,19.78
2022-11-19T12:58:25.634Z,20.07
2022-11-19T13:00:57.398Z,19.95
2022-11-19T13:03:42.312Z,19.58
2022-11-19T13:06:18.028Z,19.67
2022-11-19T13:08:50.120Z,19.78
2022-11-19T13:11:21.807Z,19.98
2022-11-19T13:13:50.136Z,19.27
2022-11-19T13:16:21.560Z,19.85
2022-11-19T13:18:53.955Z,19.64
2022-11-19T13:21:27.757Z,19.50
2022-11-19T13:23:57.879Z,19.60
2022-11-19T13:26:30.422Z,19.58
2022-11-19T13:29:04.106Z,19.54
2022-11-19T13:31:36.943Z,19.87
2022-11-19T13:34:15.587Z,19.51
2022-11-19T13:36:46.524Z,20.15
2022-11-19T13:39:18.871Z,20.34
2022-11-19T13:42:07.944Z,20.38
2022-11-19T13:44:41.216Z,20.99
2022-11-19T13:47:14.716Z,20.62
2022-11-19T13:49:45.805Z,20.96
2022-11-19T13:52:16.830Z,20.45
2022-11-19T13:54:45.969Z,20.91
2022-11-19T13:57:27.154Z,20.91
2022-11-19T14:00:00.608Z,21.27
2022-11-19T14:02:45.629Z,21.08
2022-11-19T14:05:48.002Z,21.39
2022-11-19T14:08:25.299Z,21.79
2022-11-19T14:11:08.513Z,21.94
2022-11-19T14:14:00.134Z,21.88
2022-11-19T14:16:49.975Z,22.10
2022-11-19T14:19:37.071Z,22.35
2022-11-19T14:22:51.325Z,22.48
2022-11-19T14:25:59.388Z,22.29
2022-11-19T14:28:47.763Z,22.83
2022-11-19T14:31:16.875Z,23.31
2022-11-19T14:34:04.377Z,23.11
2022-11-19T14:36:44.177Z,23.34
2022-11-19T14:39:20.857Z,23.70
2022-11-19T14:42:15.768Z,23.26
2022-11-19T14:44:44.659Z,23.93
2022-11-19T14:47:34.596Z,23.61
2022-11-19T14:50:04.749Z,23.67
2022-11-19T14:52:35.642Z,23.93
2022-11-19T14:55:07.064Z,24.13
2022-11-19T14:57:37.681Z,24.23
2022-11-19T15:00:08.466Z,24.48
2022-11-19T15:02:39.661Z,24.64
2022-11-19T15:05:18.329Z,24.15
2022-11-19T15:07:52.926Z,24.26
2022-11-19T15:10:50.087Z,23.86
2022-11-19T15:13:28.778Z,23.90
2022-11-19T15:16:07.529Z,24.17
2022-11-19T15:19:14.587Z,23.72
2022-11-19T15:22:15.724Z,23.79
2022-11-19T15:25:03.706Z,23.92
2022-11-19T15:27:47.462Z,24.13
2022-11-19T15:30:17.944Z,24.43
2022-11-19T15:32:59.080Z,24.17
2022-11-19T15:35:45.717Z,23.58
2022-11-19T15:38:30.278Z,24.23
2022-11-19T15:41:01.958Z,24.74
2022-11-19T15:43:33.672Z,25.04
2022-11-19T15:46:06.429Z,25.03
2022-11-19T15:48:38.382Z,25.54
2022-11-19T15:51:08.613Z,25.72
2022-11-19T15:53:36.771Z,25.85
2022-11-19T15:56:07.652Z,25.85
2022-11-19T15:58:39.642Z,25.68
2022-11-19T16:01:09.555Z,26.12
2022-11-19T16:03:40.257Z,26.08
2022-11-19T16:06:10.430Z,25.98
2022-11-19T16:08:39.143Z,26.34
2022-11-19T16:11:25.081Z,26.35
2022-11-19T16:14:12.984Z,26.34
2022-11-19T16:16:58.663Z,26.50
2022-11-19T16:19:26.783Z,26.64
2022-11-19T16:21:57.533Z,26.75
2022-11-19T16:24:44.171Z,27.09
2022-11-19T16:27:13.896Z,27.10
2022-11-19T16:29:44.138Z,26.96
2022-11-19T16:32:18.021Z,26.99
2022-11-19T16:34:46.344Z,27.20
2022-11-19T16:37:15.633Z,27.29
2022-11-19T16:39:45.093Z,27.80
2022-11-19T16:42:17.148Z,27.66
2022-11-19T16:44:48.575Z,27.74
2022-11-19T16:47:22.253Z,27.61
2022-11-19T16:50:00.023Z,27.72
2022-11-19T16:52:39.356Z,27.63
2022-11-19T16:55:30.388Z,28.22
2022-11-19T16:58:00.090Z,28.14
2022-11-19T17:00:33.156Z,28.06
2022-11-19T17:03:04.216Z,27.96
2022-11-19T17:05:33.224Z,28.24
2022-11-19T17:08:06.524Z,28.09
2022-11-19T17:10:35.644Z,28.31
2022-11-19T17:13:05.892Z,28.29
2022-11-19T17:15:38.677Z,28.43
2022-11-19T17:18:16.640Z,28.24
2022-11-19T17:20:53.153Z,28.48
2022-11-19T17:23:23.022Z,28.71
2022-11-19T17:25:52.790Z,28.81
2022-11-19T17:28:22.930Z,28.79
2022-11-19T17:30:52.664Z,28.77
2022-11-19T17:33:23.005Z,28.78
2022-11-19T17:35:52.073Z,29.03
2022-11-19T17:38:23.966Z,29.16
2022-11-19T17:40:53.855Z,29.04
2022-11-19T17:43:42.794Z,29.11
2022-11-19T17:46:12.341Z,28.96
2022-11-19T17:48:42.439Z,29.13
2022-11-19T17:51:12.945Z,29.01
2022-11-19T17:53:41.675Z,28.98
2022-11-19T17:56:16.839Z,28.71
2022-11-19T17:58:45.260Z,28.93
2022-11-19T18:01:15.396Z,29.01
2022-11-19T18:03:44.078Z,29.00
2022-11-19T18:06:12.784Z,29.05
2022-11-19T18:08:42.274Z,29.03
2022-11-19T18:11:13.362Z,29.13
2022-11-19T18:13:42.234Z,28.21
2022-11-19T18:16:16.069Z,29.01
2022-11-19T18:18:45.108Z,29.36
2022-11-19T18:21:14.362Z,29.38
2022-11-19T18:23:44.151Z,29.34
2022-11-19T18:26:12.767Z,29.41
2022-11-19T18:28:44.968Z,29.51
2022-11-19T18:31:17.618Z,29.38
2022-11-19T18:33:48.037Z,29.49
2022-11-19T18:36:16.274Z,29.61
2022-11-19T18:38:45.060Z,29.63
2022-11-19T18:41:14.588Z,29.67
2022-11-19T18:44:01.009Z,29.59
2022-11-19T18:46:30.429Z,30.34
2022-11-19T18:48:58.849Z,30.19
2022-11-19T18:51:28.172Z,30.02
2022-11-19T18:53:56.526Z,30.04
2022-11-19T18:56:24.774Z,29.91
2022-11-19T18:58:53.529Z,29.91
2022-11-19T19:01:24.110Z,29.92
2022-11-19T19:03:54.008Z,29.73
2022-11-19T19:06:23.220Z,29.84
2022-11-19T19:08:52.053Z,29.73
2022-11-19T19:11:37.640Z,29.66
2022-11-19T19:14:06.132Z,29.47
2022-11-19T19:16:34.820Z,29.52
2022-11-19T19:19:05.216Z,29.46
2022-11-19T19:21:33.529Z,29.44
2022-11-19T19:24:05.357Z,29.19
2022-11-19T19:26:33.507Z,29.32
2022-11-19T19:29:02.249Z,29.25
2022-11-19T19:31:30.368Z,29.21
2022-11-19T19:33:58.822Z,29.30
2022-11-19T19:36:28.845Z,29.22
2022-11-19T19:38:57.358Z,29.45
2022-11-19T19:41:27.193Z,29.74
2022-11-19T19:43:57.390Z,29.76
2022-11-19T19:46:25.702Z,29.73
2022-11-19T19:48:56.112Z,29.88
2022-11-19T19:51:25.528Z,29.81
2022-11-19T19:53:55.867Z,29.73
2022-11-19T19:56:25.485Z,29.72
2022-11-19T19:58:54.090Z,29.82
2022-11-19T20:01:24.613Z,29.73
2022-11-19T20:03:54.812Z,29.73
2022-11-19T20:06:24.554Z,29.76
2022-11-19T20:08:53.207Z,29.78
2022-11-19T20:11:25.163Z,29.68
2022-11-19T20:13:54.492Z,29.95
2022-11-19T20:16:23.770Z,30.11
2022-11-19T20:18:53.068Z,30.11
2022-11-19T20:21:22.821Z,29.89
2022-11-19T20:23:51.588Z,29.89
2022-11-19T20:26:21.322Z,29.86
2022-11-19T20:28:55.564Z,29.55
2022-11-19T20:31:24.451Z,29.92
2022-11-19T20:33:55.167Z,29.98
2022-11-19T20:36:24.605Z,30.39
2022-11-19T20:38:53.305Z,30.67
2022-11-19T20:41:39.281Z,30.67
2022-11-19T20:44:24.184Z,30.49
2022-11-19T20:46:53.696Z,30.94
2022-11-19T20:49:24.058Z,31.27
2022-11-19T20:51:52.834Z,31.36
2022-11-19T20:54:22.435Z,31.55
2022-11-19T20:56:51.928Z,31.94
2022-11-19T20:59:22.602Z,31.87
2022-11-19T21:01:51.673Z,32.30
2022-11-19T21:04:20.688Z,32.48
2022-11-19T21:06:50.045Z,32.86
2022-11-19T21:09:19.853Z,32.96
2022-11-19T21:11:48.746Z,33.04
2022-11-19T21:14:17.107Z,33.16
2022-11-19T21:16:46.779Z,33.02
2022-11-19T21:19:15.642Z,33.29
2022-11-19T21:21:44.289Z,33.67
2022-11-19T21:24:13.148Z,33.75
2022-11-19T21:26:41.678Z,33.79
2022-11-19T21:29:10.072Z,33.79
2022-11-19T21:31:42.721Z,33.79
2022-11-19T21:34:14.336Z,33.70
2022-11-19T21:36:42.692Z,32.79
2022-11-19T21:39:11.848Z,33.90
2022-11-19T21:41:40.147Z,33.91
2022-11-19T21:44:08.571Z,33.89
2022-11-19T21:46:37.238Z,33.90
2022-11-19T21:49:06.344Z,33.99
2022-11-19T21:51:35.940Z,33.89
2022-11-19T21:54:04.509Z,33.94
2022-11-19T21:56:38.270Z,34.13
2022-11-19T21:59:07.818Z,34.11
2022-11-19T22:01:36.573Z,34.14
2022-11-19T22:04:06.131Z,34.40
2022-11-19T22:06:35.791Z,34.33
2022-11-19T22:09:04.223Z,34.44
2022-11-19T22:11:32.693Z,34.58
2022-11-19T22:14:02.436Z,34.76
2022-11-19T22:16:31.310Z,35.07
2022-11-19T22:19:00.068Z,35.23
2022-11-19T22:21:29.197Z,35.38
2022-11-19T22:23:59.174Z,35.74
2022-11-19T22:26:27.758Z,35.73
2022-11-19T22:28:56.398Z,36.28
2022-11-19T22:31:25.627Z,36.08
2022-11-19T22:33:54.152Z,36.46
2022-11-19T22:36:23.192Z,36.88
2022-11-19T22:38:52.024Z,37.29
2022-11-19T22:41:22.891Z,36.97
2022-11-19T22:43:52.145Z,36.98
2022-11-19T22:46:20.882Z,36.77
2022-11-19T22:48:49.352Z,36.83
2022-11-19T22:51:18.811Z,36.96
2022-11-19T22:53:47.560Z,36.91
2022-11-19T22:56:17.522Z,36.67
2022-11-19T22:58:47.803Z,36.80
2022-11-19T23:01:18.376Z,36.93
2022-11-19T23:03:47.525Z,37.07
2022-11-19T23:06:16.095Z,36.89
2022-11-19T23:08:44.811Z,36.96
2022-11-19T23:11:14.604Z,36.79
2022-11-19T23:13:44.107Z,36.76
2022-11-19T23:16:15.604Z,36.46
2022-11-19T23:18:48.192Z,36.41
2022-11-19T23:21:17.846Z,36.54
2022-11-19T23:23:46.367Z,36.64
2022-11-19T23:26:16.314Z,36.64
2022-11-19T23:28:44.879Z,36.67
2022-11-19T23:31:18.834Z,36.70
2022-11-19T23:33:47.676Z,36.72
2022-11-19T23:36:18.083Z,36.63
2022-11-19T23:38:46.909Z,36.75
2022-11-19T23:41:17.161Z,36.80
2022-11-19T23:43:46.255Z,37.09
2022-11-19T23:46:18.016Z,36.92
2022-11-19T23:48:48.004Z,36.70
2022-11-19T23:51:17.998Z,36.81
2022-11-19T23:53:46.470Z,36.61
2022-11-19T23:56:16.015Z,36.67
2022-11-19T23:58:44.748Z,36.94
